Pagrindinis puslapis
METAR-TAF:

METAR-TAF

Oro uostai :

Helsinkis, Suomija

platuma: 60-19N, ilguma: 024-58E, Aukštis: 51 m

Dabartinis oras

Ataskaita buvo paskelbta 28 minutes, ne 22:50 UTC
Vėjas 3 kt iš Pietryčių
Temperatūra 5°C
Drėgmė 93%
Slėgis 1011 hPa
Matomumas 10 km arba daugiau
Mažai debesys ne aukštis 4300 ft

METAR: EFHK 202250Z 13003KT 9999 FEW043 05/04 Q1011 NOSIG

Laikas: 02:18 (23:18 UTC)

Prognozė

Ataskaita buvo paskelbta 2 valandos ir 44 minutes, ne 20:34 UTC
Prognozė galioja nuo 20 metu 21 UTC su 21 metu 21 UTC
Vėjas 4 kt iš Pietvakarių
Matomumas 10 km arba daugiau
Mažai debesys ne aukštis 3500 ft
Su prošvaistėmis ne aukštis 5000 ft
lietus
Laikinai
nuo 21 metu 03 UTC su 21 metu 18 UTC
Matomumas: 4000 m
Su prošvaistėmis ne aukštis 1100 ft
dulksna, lietus
Tikimybė 40% :
Laikinai
nuo 21 metu 07 UTC su 21 metu 14 UTC
Su prošvaistėmis ne aukštis 700 ft

TAF: EFHK 202034Z 2021/2121 23004KT 9999 -RA FEW035 BKN050 TEMPO 2103/2118 4000 DZRA BKN011 PROB40 TEMPO 2107/2114 BKN007

Orai ataskaitas ir orų prognozės (METAR, TAF).

turimą stotys yra geltonos ir raudonos taškus žemėlapyje.

Perkelti pele per norėdami pamatyti stoties vardą.

Tada spustelėkite, norėdami matyti oro stebėjimo ir prognozės.

Norėdami pakeisti žemėlapį: spustelėkite ant žalios mygtukų su juodo kryžiaus žemyn,; žalią mygtuką su brūkšneliu, jei norite nutolinti; arba žalių rodyklių gretimoms žemėlapius.


METAR-TAF: